createdAt,value
2022-09-20T00:01:02.446Z,14.12
2022-09-20T00:03:29.522Z,14.54
2022-09-20T00:05:59.965Z,14.47
2022-09-20T00:08:26.633Z,14.28
2022-09-20T00:10:57.858Z,14.19
2022-09-20T00:13:24.529Z,14.32
2022-09-20T00:15:51.192Z,14.27
2022-09-20T00:18:18.148Z,14.41
2022-09-20T00:20:46.029Z,14.47
2022-09-20T00:23:12.749Z,14.10
2022-09-20T00:25:39.738Z,14.38
2022-09-20T00:28:06.620Z,14.31
2022-09-20T00:30:33.547Z,14.34
2022-09-20T00:33:00.670Z,14.26
2022-09-20T00:35:27.861Z,14.31
2022-09-20T00:37:55.619Z,14.25
2022-09-20T00:40:23.192Z,14.45
2022-09-20T00:42:50.148Z,14.38
2022-09-20T00:45:23.897Z,14.23
2022-09-20T00:48:13.856Z,14.25
2022-09-20T00:50:41.311Z,14.20
2022-09-20T00:53:17.138Z,14.23
2022-09-20T00:55:46.177Z,14.25
2022-09-20T00:58:13.508Z,14.25
2022-09-20T01:00:40.258Z,14.09
2022-09-20T01:03:07.599Z,13.99
2022-09-20T01:05:34.863Z,14.26
2022-09-20T01:08:01.677Z,14.01
2022-09-20T01:10:28.477Z,14.25
2022-09-20T01:12:55.576Z,14.26
2022-09-20T01:15:23.295Z,13.86
2022-09-20T01:17:52.026Z,14.11
2022-09-20T01:20:20.916Z,14.02
2022-09-20T01:22:59.937Z,14.16
2022-09-20T01:25:26.831Z,13.96
2022-09-20T01:27:53.619Z,14.08
2022-09-20T01:30:21.316Z,14.09
2022-09-20T01:33:05.689Z,14.10
2022-09-20T01:35:32.995Z,13.65
2022-09-20T01:38:18.967Z,13.84
2022-09-20T01:40:48.988Z,14.00
2022-09-20T01:43:15.900Z,14.04
2022-09-20T01:45:45.643Z,13.98
2022-09-20T01:48:32.041Z,14.15
2022-09-20T01:51:17.957Z,13.98
2022-09-20T01:53:47.414Z,14.19
2022-09-20T01:56:28.043Z,14.04
2022-09-20T01:59:23.778Z,14.34
2022-09-20T02:01:57.682Z,14.24
2022-09-20T02:04:24.640Z,14.19
2022-09-20T02:07:05.199Z,14.19
2022-09-20T02:09:41.354Z,14.08
2022-09-20T02:12:08.266Z,14.01
2022-09-20T02:14:41.784Z,14.37
2022-09-20T02:17:16.363Z,14.28
2022-09-20T02:19:58.507Z,14.10
2022-09-20T02:22:25.137Z,14.07
2022-09-20T02:25:07.401Z,14.28
2022-09-20T02:27:39.872Z,14.07
2022-09-20T02:30:09.717Z,14.19
2022-09-20T02:32:45.738Z,13.94
2022-09-20T02:35:13.611Z,14.08
2022-09-20T02:37:59.333Z,13.79
2022-09-20T02:40:26.883Z,13.91
2022-09-20T02:43:12.880Z,14.16
2022-09-20T02:45:45.018Z,13.91
2022-09-20T02:48:11.737Z,13.86
2022-09-20T02:51:13.910Z,14.02
2022-09-20T02:53:45.813Z,13.78
2022-09-20T02:56:34.132Z,13.91
2022-09-20T02:59:20.062Z,13.84
2022-09-20T03:01:54.367Z,13.56
2022-09-20T03:04:23.883Z,13.74
2022-09-20T03:06:50.649Z,13.78
2022-09-20T03:09:29.574Z,13.64
2022-09-20T03:12:08.731Z,13.30
2022-09-20T03:14:57.743Z,13.80
2022-09-20T03:17:27.753Z,13.92
2022-09-20T03:20:12.993Z,13.47
2022-09-20T03:23:00.153Z,13.66
2022-09-20T03:25:26.913Z,14.00
2022-09-20T03:27:53.789Z,13.81
2022-09-20T03:30:41.501Z,13.98
2022-09-20T03:33:08.659Z,14.15
2022-09-20T03:35:35.365Z,14.01
2022-09-20T03:38:10.609Z,14.16
2022-09-20T03:40:49.927Z,13.98
2022-09-20T03:43:35.749Z,14.04
2022-09-20T03:46:08.690Z,13.84
2022-09-20T03:48:56.808Z,14.09
2022-09-20T03:51:35.485Z,14.05
2022-09-20T03:54:22.109Z,14.05
2022-09-20T03:56:53.459Z,14.08
2022-09-20T03:59:26.385Z,13.70
2022-09-20T04:02:11.965Z,13.82
2022-09-20T04:04:41.056Z,13.77
2022-09-20T04:07:16.933Z,13.78
2022-09-20T04:09:47.688Z,13.68
2022-09-20T04:12:17.522Z,13.81
2022-09-20T04:14:49.313Z,13.60
2022-09-20T04:17:15.995Z,13.61
2022-09-20T04:19:47.092Z,13.64
2022-09-20T04:22:14.826Z,13.76
2022-09-20T04:24:44.626Z,13.44
2022-09-20T04:27:15.605Z,13.56
2022-09-20T04:29:42.567Z,13.58
2022-09-20T04:32:25.843Z,13.62
2022-09-20T04:35:14.692Z,13.62
2022-09-20T04:37:41.826Z,13.49
2022-09-20T04:40:09.855Z,13.52
2022-09-20T04:43:01.970Z,13.33
2022-09-20T04:45:51.285Z,13.42
2022-09-20T04:48:27.950Z,13.61
2022-09-20T04:50:54.855Z,13.37
2022-09-20T04:53:21.640Z,13.35
2022-09-20T04:55:50.443Z,13.26
2022-09-20T04:58:20.469Z,13.37
2022-09-20T05:01:03.799Z,13.10
2022-09-20T05:03:49.868Z,13.33
2022-09-20T05:06:16.490Z,13.39
2022-09-20T05:08:58.787Z,13.34
2022-09-20T05:11:35.111Z,13.56
2022-09-20T05:14:06.736Z,13.68
2022-09-20T05:16:33.366Z,13.59
2022-09-20T05:19:07.925Z,13.28
2022-09-20T05:21:34.917Z,13.43
2022-09-20T05:24:20.755Z,13.47
2022-09-20T05:27:06.623Z,13.55
2022-09-20T05:29:54.587Z,13.39
2022-09-20T05:32:44.933Z,13.51
2022-09-20T05:35:15.385Z,13.80
2022-09-20T05:38:00.347Z,13.72
2022-09-20T05:40:45.529Z,13.85
2022-09-20T05:43:13.657Z,13.92
2022-09-20T05:45:59.328Z,13.77
2022-09-20T05:48:32.113Z,14.05
2022-09-20T05:51:03.839Z,13.98
2022-09-20T05:53:41.684Z,13.73
2022-09-20T05:56:16.728Z,13.60
2022-09-20T05:58:47.701Z,14.00
2022-09-20T06:01:27.263Z,14.00
2022-09-20T06:03:56.292Z,13.88
2022-09-20T06:06:31.714Z,13.80
2022-09-20T06:09:18.314Z,13.89
2022-09-20T06:12:03.781Z,13.94
2022-09-20T06:14:50.918Z,14.11
2022-09-20T06:17:29.885Z,14.07
2022-09-20T06:20:00.518Z,14.05
2022-09-20T06:22:47.210Z,14.30
2022-09-20T06:25:16.026Z,14.32
2022-09-20T06:27:43.878Z,14.39
2022-09-20T06:30:21.170Z,14.73
2022-09-20T06:32:58.368Z,14.85
2022-09-20T06:35:26.607Z,15.10
2022-09-20T06:38:22.274Z,15.17
2022-09-20T06:41:07.850Z,15.25
2022-09-20T06:43:41.117Z,14.84
2022-09-20T06:46:07.980Z,15.15
2022-09-20T06:48:39.938Z,14.89
2022-09-20T06:51:07.705Z,15.13
2022-09-20T06:53:35.210Z,15.10
2022-09-20T06:56:02.266Z,15.22
2022-09-20T06:58:29.268Z,15.29
2022-09-20T07:00:55.988Z,15.43
2022-09-20T07:03:22.952Z,15.44
2022-09-20T07:05:50.910Z,15.23
2022-09-20T07:08:17.607Z,15.26
2022-09-20T07:10:45.173Z,15.38
2022-09-20T07:13:13.858Z,15.17
2022-09-20T07:15:40.823Z,15.37
2022-09-20T07:18:08.231Z,15.43
2022-09-20T07:20:35.213Z,15.30
2022-09-20T07:23:02.751Z,15.45
2022-09-20T07:25:30.774Z,15.43
2022-09-20T07:27:57.609Z,15.54
2022-09-20T07:30:24.346Z,15.55
2022-09-20T07:32:51.292Z,15.37
2022-09-20T07:35:18.087Z,15.51
2022-09-20T07:37:44.808Z,15.96
2022-09-20T07:40:11.891Z,16.16
2022-09-20T07:42:38.640Z,15.89
2022-09-20T07:45:05.853Z,16.16
2022-09-20T07:47:33.509Z,16.34
2022-09-20T07:50:00.254Z,16.62
2022-09-20T07:52:26.955Z,16.54
2022-09-20T07:54:54.367Z,16.95
2022-09-20T07:57:21.025Z,17.00
2022-09-20T07:59:47.732Z,17.37
2022-09-20T08:02:15.206Z,17.41
2022-09-20T08:04:42.198Z,17.36
2022-09-20T08:07:08.913Z,17.60
2022-09-20T08:09:35.666Z,17.92
2022-09-20T08:14:49.545Z,17.96
2022-09-20T08:17:16.542Z,18.27
2022-09-20T08:19:44.774Z,18.18
2022-09-20T08:22:12.624Z,18.02
2022-09-20T08:24:39.620Z,17.81
2022-09-20T08:27:06.356Z,18.07
2022-09-20T08:29:33.095Z,18.21
2022-09-20T08:32:01.552Z,18.23
2022-09-20T08:34:28.393Z,18.31
2022-09-20T08:36:56.625Z,18.20
2022-09-20T08:42:12.426Z,17.64
2022-09-20T08:44:59.512Z,17.49
2022-09-20T08:47:31.119Z,17.51
2022-09-20T08:49:58.304Z,17.73
2022-09-20T08:52:39.397Z,17.66
2022-09-20T08:55:15.096Z,17.67
2022-09-20T08:57:41.850Z,17.59
2022-09-20T09:00:19.308Z,17.72
2022-09-20T09:02:46.129Z,17.62
2022-09-20T09:05:28.334Z,18.16
2022-09-20T09:07:55.192Z,17.89
2022-09-20T09:10:22.116Z,17.77
2022-09-20T09:12:49.043Z,18.11
2022-09-20T09:15:30.066Z,18.51
2022-09-20T09:17:57.038Z,18.23
2022-09-20T09:20:23.996Z,18.27
2022-09-20T09:23:11.788Z,18.17
2022-09-20T09:25:39.356Z,17.94
2022-09-20T09:28:06.097Z,18.11
2022-09-20T09:30:32.868Z,18.20
2022-09-20T09:33:18.995Z,18.71
2022-09-20T09:35:53.119Z,18.59
2022-09-20T09:38:24.162Z,18.28
2022-09-20T09:40:55.145Z,18.12
2022-09-20T09:43:24.596Z,18.07
2022-09-20T09:45:51.361Z,17.86
2022-09-20T09:48:19.641Z,17.80
2022-09-20T09:50:47.332Z,17.74
2022-09-20T09:53:15.452Z,17.95
2022-09-20T09:56:01.016Z,18.34
2022-09-20T09:58:34.501Z,18.20
2022-09-20T10:01:01.310Z,18.51
2022-09-20T10:03:31.127Z,18.39
2022-09-20T10:06:02.585Z,18.85
2022-09-20T10:08:48.255Z,18.62
2022-09-20T10:11:28.601Z,18.56
2022-09-20T10:14:05.640Z,18.54
2022-09-20T10:16:45.064Z,18.62
2022-09-20T10:19:22.063Z,18.78
2022-09-20T10:21:52.547Z,18.87
2022-09-20T10:24:42.863Z,18.86
2022-09-20T10:27:22.641Z,18.61
2022-09-20T10:29:59.199Z,18.73
2022-09-20T10:32:28.456Z,19.00
2022-09-20T10:35:11.650Z,19.17
2022-09-20T10:37:46.059Z,18.91
2022-09-20T10:40:16.149Z,19.32
2022-09-20T10:43:05.896Z,19.41
2022-09-20T10:46:14.404Z,18.83
2022-09-20T10:48:25.746Z,19.43
2022-09-20T10:50:55.120Z,19.80
2022-09-20T10:53:27.787Z,19.77
2022-09-20T10:56:15.296Z,19.58
2022-09-20T10:58:46.622Z,19.55
2022-09-20T11:01:14.381Z,19.02
2022-09-20T11:04:00.447Z,18.97
2022-09-20T11:06:43.512Z,19.24
2022-09-20T11:09:14.003Z,18.81
2022-09-20T11:11:46.591Z,18.71
2022-09-20T11:14:36.656Z,18.62
2022-09-20T11:17:09.504Z,18.63
2022-09-20T11:19:57.254Z,17.95
2022-09-20T11:22:27.502Z,18.11
2022-09-20T11:25:18.151Z,18.00
2022-09-20T11:27:49.533Z,18.34
2022-09-20T11:30:20.644Z,18.50
2022-09-20T11:32:49.631Z,18.69
2022-09-20T11:35:16.331Z,18.57
2022-09-20T11:37:50.526Z,18.62
2022-09-20T11:40:22.660Z,18.45
2022-09-20T11:42:49.396Z,18.68
2022-09-20T11:45:16.082Z,18.50
2022-09-20T11:48:00.995Z,18.63
2022-09-20T11:50:45.270Z,18.68
2022-09-20T11:53:15.178Z,18.64
2022-09-20T11:56:00.793Z,18.36
2022-09-20T11:58:28.106Z,18.47
2022-09-20T12:00:56.663Z,18.44
2022-09-20T12:03:32.956Z,18.16
2022-09-20T12:06:03.726Z,18.41
2022-09-20T12:08:31.844Z,18.55
2022-09-20T12:11:04.152Z,18.51
2022-09-20T12:13:32.337Z,18.61
2022-09-20T12:15:59.928Z,18.91
2022-09-20T12:18:31.223Z,19.17
2022-09-20T12:21:02.871Z,19.29
2022-09-20T12:23:40.287Z,19.19
2022-09-20T12:26:22.617Z,18.98
2022-09-20T12:28:50.206Z,19.33
2022-09-20T12:31:29.528Z,19.35
2022-09-20T12:33:56.957Z,19.25
2022-09-20T12:36:24.040Z,19.36
2022-09-20T12:39:11.112Z,19.32
2022-09-20T12:41:51.788Z,19.52
2022-09-20T12:44:32.696Z,19.75
2022-09-20T12:47:11.770Z,19.71
2022-09-20T12:50:06.485Z,19.23
2022-09-20T12:52:58.018Z,19.45
2022-09-20T12:55:27.895Z,19.13
2022-09-20T12:57:55.794Z,18.85
2022-09-20T13:00:48.814Z,18.96
2022-09-20T13:03:16.800Z,18.64
2022-09-20T13:05:46.190Z,18.88
2022-09-20T13:08:18.350Z,18.87
2022-09-20T13:10:50.009Z,18.57
2022-09-20T13:13:37.016Z,18.62
2022-09-20T13:16:06.043Z,18.59
2022-09-20T13:18:33.500Z,18.75
2022-09-20T13:21:07.045Z,18.69
2022-09-20T13:23:37.402Z,18.59
2022-09-20T13:26:05.504Z,18.55
2022-09-20T13:28:33.622Z,18.69
2022-09-20T13:31:16.862Z,18.73
2022-09-20T13:33:43.526Z,18.61
2022-09-20T13:36:10.462Z,18.78
2022-09-20T13:38:38.350Z,18.70
2022-09-20T13:41:06.334Z,18.84
2022-09-20T13:43:36.704Z,18.46
2022-09-20T13:46:19.537Z,18.67
2022-09-20T13:48:47.284Z,18.73
2022-09-20T13:51:27.129Z,18.27
2022-09-20T13:53:54.134Z,18.38
2022-09-20T13:56:22.053Z,18.13
2022-09-20T13:58:51.403Z,18.26
2022-09-20T14:01:36.281Z,18.52
2022-09-20T14:04:16.384Z,18.42
2022-09-20T14:06:43.168Z,18.48
2022-09-20T14:09:17.043Z,18.33
2022-09-20T14:11:43.784Z,18.23
2022-09-20T14:14:11.183Z,18.17
2022-09-20T14:16:41.560Z,18.16
2022-09-20T14:19:08.378Z,17.92
2022-09-20T14:21:35.663Z,17.98
2022-09-20T14:24:06.930Z,18.30
2022-09-20T14:26:34.863Z,18.35
2022-09-20T14:29:20.661Z,18.22
2022-09-20T14:31:47.373Z,18.41
2022-09-20T14:34:14.391Z,18.62
2022-09-20T14:36:41.216Z,18.91
2022-09-20T14:39:12.529Z,18.76
2022-09-20T14:41:39.818Z,18.61
2022-09-20T14:44:09.360Z,18.90
2022-09-20T14:46:36.588Z,19.03
2022-09-20T14:49:31.127Z,19.12
2022-09-20T14:52:17.656Z,18.88
2022-09-20T14:54:56.735Z,18.61
2022-09-20T14:57:23.384Z,18.84
2022-09-20T14:59:50.320Z,18.62
2022-09-20T15:02:17.053Z,18.41
2022-09-20T15:04:51.797Z,18.11
2022-09-20T15:07:21.239Z,18.16
2022-09-20T15:09:47.977Z,18.39
2022-09-20T15:12:18.446Z,18.28
2022-09-20T15:14:45.592Z,18.23
2022-09-20T15:17:14.150Z,17.73
2022-09-20T15:19:41.993Z,17.96
2022-09-20T15:22:09.925Z,18.08
2022-09-20T15:24:36.580Z,18.11
2022-09-20T15:27:03.340Z,17.87
2022-09-20T15:29:30.762Z,17.96
2022-09-20T15:31:57.495Z,17.24
2022-09-20T15:34:24.185Z,17.51
2022-09-20T15:36:51.159Z,17.64
2022-09-20T15:39:17.834Z,17.75
2022-09-20T15:41:45.181Z,16.97
2022-09-20T15:44:12.236Z,17.06
2022-09-20T15:46:39.222Z,17.01
2022-09-20T15:49:06.874Z,17.27
2022-09-20T15:51:34.026Z,16.88
2022-09-20T15:54:01.769Z,17.07
2022-09-20T15:56:35.975Z,16.92
2022-09-20T15:59:09.917Z,17.05
2022-09-20T16:01:40.670Z,17.04
2022-09-20T16:04:12.419Z,17.03
2022-09-20T16:06:40.017Z,16.84
2022-09-20T16:09:07.664Z,16.91
2022-09-20T16:11:34.680Z,16.87
2022-09-20T16:14:01.381Z,16.90
2022-09-20T16:16:29.032Z,17.00
2022-09-20T16:19:14.606Z,16.66
2022-09-20T16:21:42.480Z,16.59
2022-09-20T16:24:12.406Z,16.91
2022-09-20T16:26:39.332Z,16.51
2022-09-20T16:29:07.464Z,16.26
2022-09-20T16:31:41.010Z,16.23
2022-09-20T16:34:16.993Z,16.37
2022-09-20T16:36:44.386Z,16.71
2022-09-20T16:39:12.005Z,16.31
2022-09-20T16:41:39.532Z,16.58
2022-09-20T16:44:06.216Z,16.43
2022-09-20T16:46:37.066Z,16.54
2022-09-20T16:49:04.818Z,16.63
2022-09-20T16:51:33.263Z,16.71
2022-09-20T16:54:04.268Z,16.56
2022-09-20T16:56:31.926Z,16.57
2022-09-20T16:58:58.661Z,16.35
2022-09-20T17:01:25.657Z,16.52
2022-09-20T17:03:52.677Z,16.46
2022-09-20T17:06:19.630Z,16.43
2022-09-20T17:08:46.853Z,16.28
2022-09-20T17:11:15.073Z,16.23
2022-09-20T17:13:42.968Z,16.24
2022-09-20T17:16:16.397Z,16.25
2022-09-20T17:18:43.383Z,16.27
2022-09-20T17:21:12.794Z,16.28
2022-09-20T17:23:41.098Z,16.27
2022-09-20T17:26:15.044Z,16.21
2022-09-20T17:28:43.080Z,16.56
2022-09-20T17:31:11.827Z,16.42
2022-09-20T17:33:38.616Z,16.17
2022-09-20T17:36:06.481Z,16.40
2022-09-20T17:38:33.774Z,16.45
2022-09-20T17:41:01.463Z,16.20
2022-09-20T17:43:29.954Z,16.15
2022-09-20T17:46:03.643Z,16.15
2022-09-20T17:48:31.596Z,16.30
2022-09-20T17:50:58.258Z,16.09
2022-09-20T17:53:24.922Z,16.07
2022-09-20T17:55:55.467Z,16.24
2022-09-20T17:58:22.495Z,16.43
2022-09-20T18:00:49.683Z,15.88
2022-09-20T18:03:17.840Z,16.15
2022-09-20T18:05:44.512Z,16.24
2022-09-20T18:08:11.177Z,16.15
2022-09-20T18:10:43.853Z,16.17
2022-09-20T18:13:18.003Z,16.13
2022-09-20T18:15:45.811Z,16.08
2022-09-20T18:18:12.616Z,16.04
2022-09-20T18:20:40.230Z,16.08
2022-09-20T18:23:07.273Z,16.16
2022-09-20T18:25:58.520Z,16.10
2022-09-20T18:28:25.521Z,15.96
2022-09-20T18:31:10.532Z,15.92
2022-09-20T18:33:38.007Z,15.94
2022-09-20T18:36:05.505Z,15.67
2022-09-20T18:38:33.184Z,15.58
2022-09-20T18:41:01.071Z,15.75
2022-09-20T18:43:28.408Z,15.83
2022-09-20T18:45:57.239Z,15.74
2022-09-20T18:48:27.595Z,15.92
2022-09-20T18:50:58.197Z,15.83
2022-09-20T18:53:26.353Z,15.76
2022-09-20T18:56:02.334Z,15.67
2022-09-20T18:58:29.416Z,15.68
2022-09-20T19:01:01.148Z,15.68
2022-09-20T19:03:30.923Z,15.51
2022-09-20T19:05:58.894Z,15.42
2022-09-20T19:08:34.514Z,15.44
2022-09-20T19:11:02.591Z,15.56
2022-09-20T19:13:45.023Z,15.45
2022-09-20T19:16:21.548Z,15.53
2022-09-20T19:18:49.106Z,15.32
2022-09-20T19:21:25.095Z,15.10
2022-09-20T19:24:18.448Z,15.35
2022-09-20T19:26:48.655Z,15.28
2022-09-20T19:29:19.726Z,15.24
2022-09-20T19:31:50.304Z,15.22
2022-09-20T19:34:21.565Z,15.06
2022-09-20T19:37:00.897Z,15.24
2022-09-20T19:39:42.519Z,15.10
2022-09-20T19:42:21.561Z,14.92
2022-09-20T19:45:07.453Z,15.10
2022-09-20T19:47:37.968Z,14.57
2022-09-20T19:50:27.894Z,14.83
2022-09-20T19:52:56.457Z,14.89
2022-09-20T19:55:23.651Z,15.02
2022-09-20T19:57:51.044Z,14.74
2022-09-20T20:00:19.519Z,14.87
2022-09-20T20:02:47.029Z,14.92
2022-09-20T20:05:14.805Z,14.71
2022-09-20T20:07:46.292Z,14.74
2022-09-20T20:10:13.397Z,14.91
2022-09-20T20:12:44.718Z,14.61
2022-09-20T20:15:11.679Z,14.99
2022-09-20T20:17:48.205Z,14.67
2022-09-20T20:20:24.190Z,14.79
2022-09-20T20:23:09.965Z,14.83
2022-09-20T20:25:43.461Z,14.74
2022-09-20T20:28:10.724Z,14.99
2022-09-20T20:30:38.187Z,14.75
2022-09-20T20:33:07.428Z,14.73
2022-09-20T20:35:37.598Z,14.57
2022-09-20T20:38:05.998Z,14.71
2022-09-20T20:40:38.599Z,14.85
2022-09-20T20:43:06.186Z,14.73
2022-09-20T20:45:32.969Z,14.93
2022-09-20T20:47:59.743Z,14.45
2022-09-20T20:50:27.129Z,14.57
2022-09-20T20:52:54.279Z,14.63
2022-09-20T20:55:24.743Z,14.54
2022-09-20T20:57:54.327Z,14.58
2022-09-20T21:00:21.015Z,14.54
2022-09-20T21:02:47.702Z,14.62
2022-09-20T21:05:15.469Z,14.67
2022-09-20T21:07:42.162Z,14.72
2022-09-20T21:10:09.306Z,14.52
2022-09-20T21:12:36.304Z,14.55
2022-09-20T21:15:03.067Z,14.50
2022-09-20T21:17:33.913Z,14.35
2022-09-20T21:20:03.175Z,14.51
2022-09-20T21:22:29.843Z,14.43
2022-09-20T21:24:56.567Z,14.51
2022-09-20T21:27:23.626Z,14.50
2022-09-20T21:29:50.293Z,14.51
2022-09-20T21:32:17.004Z,14.54
2022-09-20T21:34:44.198Z,14.56
2022-09-20T21:37:10.880Z,14.43
2022-09-20T21:39:37.659Z,14.47
2022-09-20T21:42:05.816Z,14.66
2022-09-20T21:44:32.536Z,14.71
2022-09-20T21:46:59.279Z,14.57
2022-09-20T21:49:26.315Z,14.28
2022-09-20T21:51:53.385Z,14.53
2022-09-20T21:54:20.458Z,14.37
2022-09-20T21:56:49.117Z,14.42
2022-09-20T21:59:16.786Z,14.53
2022-09-20T22:01:43.615Z,14.61
2022-09-20T22:04:11.253Z,14.39
2022-09-20T22:06:38.942Z,14.38
2022-09-20T22:09:09.732Z,14.36
2022-09-20T22:11:39.154Z,14.61
2022-09-20T22:14:08.950Z,14.46
2022-09-20T22:16:37.914Z,14.49
2022-09-20T22:19:05.286Z,14.52
2022-09-20T22:21:33.417Z,14.48
2022-09-20T22:24:01.684Z,14.52
2022-09-20T22:26:30.160Z,14.51
2022-09-20T22:28:57.091Z,14.57
2022-09-20T22:31:28.603Z,14.11
2022-09-20T22:34:00.028Z,14.37
2022-09-20T22:36:29.350Z,14.18
2022-09-20T22:38:56.248Z,14.33
2022-09-20T22:41:22.943Z,14.25
2022-09-20T22:43:50.372Z,14.39
2022-09-20T22:46:18.427Z,14.28
2022-09-20T22:48:46.490Z,14.18
2022-09-20T22:51:19.543Z,14.13
2022-09-20T22:53:46.554Z,14.27
2022-09-20T22:56:24.980Z,14.30
2022-09-20T22:58:53.771Z,14.01
2022-09-20T23:01:24.767Z,14.23
2022-09-20T23:03:54.590Z,13.99
2022-09-20T23:06:24.407Z,14.04
2022-09-20T23:08:52.028Z,14.25
2022-09-20T23:11:19.121Z,14.11
2022-09-20T23:13:46.445Z,14.09
2022-09-20T23:16:20.158Z,14.12
2022-09-20T23:18:48.647Z,14.03
2022-09-20T23:21:15.513Z,14.02
2022-09-20T23:23:43.331Z,13.69
2022-09-20T23:26:11.472Z,13.57
2022-09-20T23:28:39.389Z,13.94
2022-09-20T23:31:10.379Z,13.65
2022-09-20T23:33:37.574Z,13.68
2022-09-20T23:36:09.474Z,13.48
2022-09-20T23:38:36.479Z,13.26
2022-09-20T23:41:07.183Z,13.39
2022-09-20T23:43:36.341Z,12.36
2022-09-20T23:46:03.921Z,12.62
2022-09-20T23:48:30.794Z,12.48
2022-09-20T23:50:57.483Z,13.00
2022-09-20T23:53:24.723Z,13.34
2022-09-20T23:55:51.452Z,13.35
2022-09-20T23:58:18.130Z,13.46
